Time;durP1;ratioP1;P1;durP2;ratioP2;P2;SDS_P1;SDS_P2;PMS_P1;PMS_P2;Temp;Humidity;BMP_temperature;BMP_pressure;BME280_temperature;BME280_humidity;BME280_pressure;Samples;Min_cycle;Max_cycle;Signal;HPM_P1;HPM_P2
2023/08/31 00:01:05;;;;;;;12.83;10.90;;;13.60;99.90;;;;;;5102020;28;20235;-82
2023/08/31 00:03:32;;;;;;;11.93;10.43;;;13.60;99.90;;;;;;5088820;28;20234;-83
2023/08/31 00:06:02;;;;;;;10.73;9.73;;;13.60;99.90;;;;;;5085176;28;20746;-82
2023/08/31 00:08:28;;;;;;;13.33;11.10;;;13.50;99.90;;;;;;5103568;28;20227;-82
2023/08/31 00:11:00;;;;;;;11.47;10.27;;;13.50;99.90;;;;;;5104010;28;20606;-83
2023/08/31 00:13:28;;;;;;;13.33;11.03;;;13.60;99.90;;;;;;5087374;27;20222;-82
2023/08/31 00:15:57;;;;;;;11.30;10.10;;;13.50;99.90;;;;;;5088837;28;20233;-82
2023/08/31 00:18:24;;;;;;;13.63;10.43;;;13.60;99.90;;;;;;5086980;28;20220;-82
2023/08/31 00:20:51;;;;;;;12.10;10.90;;;13.50;99.90;;;;;;5084375;28;20235;-82
2023/08/31 00:23:18;;;;;;;13.33;10.30;;;13.50;99.90;;;;;;5081227;28;20226;-82
2023/08/31 00:25:45;;;;;;;11.83;10.00;;;13.50;99.90;;;;;;5106934;27;20216;-82
2023/08/31 00:28:15;;;;;;;11.80;10.23;;;13.50;99.90;;;;;;5085720;28;20231;-82
2023/08/31 00:30:44;;;;;;;12.17;9.93;;;13.50;99.90;;;;;;5089419;28;20218;-82
2023/08/31 00:33:11;;;;;;;11.40;9.90;;;13.50;99.90;;;;;;5098791;28;20290;-83
2023/08/31 00:35:38;;;;;;;10.53;8.90;;;13.50;99.90;;;;;;5110235;27;20220;-83
2023/08/31 00:38:04;;;;;;;10.87;9.77;;;13.50;99.90;;;;;;5084165;28;20291;-84
2023/08/31 00:40:33;;;;;;;11.30;9.67;;;13.40;99.90;;;;;;5082865;28;21861;-83
2023/08/31 00:43:00;;;;;;;13.03;9.87;;;13.50;99.90;;;;;;5099515;28;20224;-84
2023/08/31 00:45:28;;;;;;;13.10;10.03;;;13.40;99.90;;;;;;5084795;28;20231;-84
2023/08/31 00:47:57;;;;;;;11.37;9.60;;;13.40;99.90;;;;;;5090539;28;20223;-84
2023/08/31 00:50:23;;;;;;;12.10;10.17;;;13.40;99.90;;;;;;5101444;28;20236;-84
2023/08/31 00:52:50;;;;;;;11.50;10.30;;;13.40;99.90;;;;;;5099349;27;20224;-84
2023/08/31 00:55:18;;;;;;;11.40;10.20;;;13.40;99.90;;;;;;5104690;28;20309;-83
2023/08/31 00:57:45;;;;;;;11.57;10.27;;;13.40;99.90;;;;;;5099282;28;20220;-83
2023/08/31 01:00:13;;;;;;;11.23;10.03;;;13.40;99.90;;;;;;5105684;27;20226;-82
2023/08/31 01:02:48;;;;;;;11.33;9.73;;;13.40;99.90;;;;;;5104912;28;20317;-84
2023/08/31 01:05:30;;;;;;;11.97;9.60;;;13.40;99.90;;;;;;5103348;28;20224;-83
2023/08/31 01:08:03;;;;;;;10.30;8.70;;;13.40;99.90;;;;;;5102914;27;20264;-83
2023/08/31 01:10:35;;;;;;;11.47;9.40;;;13.40;99.90;;;;;;5099882;28;20227;-83
2023/08/31 01:13:05;;;;;;;11.03;8.87;;;13.30;99.90;;;;;;5087044;28;20652;-83
2023/08/31 01:15:33;;;;;;;9.43;8.20;;;13.30;99.90;;;;;;5082859;28;20277;-84
2023/08/31 01:18:01;;;;;;;9.40;8.50;;;13.20;99.90;;;;;;5094812;28;20215;-83
2023/08/31 01:20:38;;;;;;;9.67;8.67;;;13.20;99.90;;;;;;5120664;27;20230;-85
2023/08/31 01:23:10;;;;;;;10.13;9.13;;;13.10;99.90;;;;;;5084072;28;20278;-83
2023/08/31 01:25:38;;;;;;;10.60;8.57;;;13.10;99.90;;;;;;5079960;28;20229;-83
2023/08/31 01:28:07;;;;;;;10.63;8.70;;;13.00;99.90;;;;;;5065119;28;20220;-82
2023/08/31 01:30:34;;;;;;;10.33;8.10;;;13.00;99.90;;;;;;5080552;28;21859;-82
2023/08/31 01:33:01;;;;;;;8.80;7.53;;;12.90;99.90;;;;;;5070875;28;20239;-82
2023/08/31 01:35:31;;;;;;;9.20;6.80;;;12.90;99.90;;;;;;5066394;28;20224;-83
2023/08/31 01:38:00;;;;;;;9.37;7.63;;;12.80;99.90;;;;;;5076127;28;20217;-83
2023/08/31 01:40:34;;;;;;;8.97;7.27;;;12.70;99.90;;;;;;5081374;28;20259;-84
2023/08/31 01:43:04;;;;;;;9.53;7.23;;;12.70;99.90;;;;;;5085160;28;20211;-83
2023/08/31 01:45:33;;;;;;;8.03;6.97;;;12.60;99.90;;;;;;5064716;28;20222;-83
2023/08/31 01:47:59;;;;;;;9.03;7.30;;;12.60;99.90;;;;;;5082598;28;20281;-83
2023/08/31 01:50:26;;;;;;;8.90;7.07;;;12.50;99.90;;;;;;5060332;28;20262;-84
2023/08/31 01:52:54;;;;;;;11.73;6.97;;;12.50;99.90;;;;;;5067693;28;20222;-84
2023/08/31 01:55:21;;;;;;;8.20;6.37;;;12.50;99.90;;;;;;5082797;28;20799;-84
2023/08/31 01:57:49;;;;;;;9.10;6.70;;;12.40;99.90;;;;;;5072955;28;20716;-83
2023/08/31 02:00:28;;;;;;;6.73;5.97;;;12.40;99.90;;;;;;5081268;28;20256;-84
2023/08/31 02:02:56;;;;;;;7.00;5.40;;;12.40;99.90;;;;;;5065733;28;20225;-84
2023/08/31 02:05:22;;;;;;;9.93;5.97;;;12.30;99.90;;;;;;5083403;28;20722;-84
2023/08/31 02:07:49;;;;;;;8.67;6.33;;;12.30;99.90;;;;;;5066770;28;20573;-83
2023/08/31 02:10:16;;;;;;;7.73;6.20;;;12.20;99.90;;;;;;5083775;28;20224;-83
2023/08/31 02:12:44;;;;;;;9.40;5.73;;;12.20;99.90;;;;;;5067793;28;20276;-84
2023/08/31 02:15:11;;;;;;;8.30;6.10;;;12.10;99.90;;;;;;5064865;28;20261;-84
2023/08/31 02:17:39;;;;;;;8.30;6.73;;;12.10;99.90;;;;;;5079450;28;20222;-84
2023/08/31 02:20:08;;;;;;;8.37;6.27;;;12.10;99.90;;;;;;5063387;28;20232;-83
2023/08/31 02:22:36;;;;;;;11.97;6.30;;;12.10;99.90;;;;;;5078234;28;20739;-83
2023/08/31 02:25:03;;;;;;;7.53;6.53;;;12.00;99.90;;;;;;5066682;28;20221;-82
2023/08/31 02:27:30;;;;;;;11.47;6.60;;;12.00;99.90;;;;;;5078875;28;20843;-83
2023/08/31 02:29:57;;;;;;;9.77;6.50;;;12.00;99.90;;;;;;5063970;28;20215;-82
2023/08/31 02:32:24;;;;;;;9.97;6.53;;;11.90;99.90;;;;;;5062789;28;20226;-83
2023/08/31 02:34:52;;;;;;;7.83;6.73;;;11.90;99.90;;;;;;5060336;28;20212;-84
2023/08/31 02:37:19;;;;;;;8.73;6.60;;;11.80;99.90;;;;;;5082138;28;20233;-82
2023/08/31 02:39:46;;;;;;;8.13;6.60;;;11.80;99.90;;;;;;5078902;28;20221;-83
2023/08/31 02:42:15;;;;;;;9.30;6.80;;;11.80;99.90;;;;;;5063180;28;20228;-82
2023/08/31 02:44:41;;;;;;;8.13;6.30;;;11.80;99.90;;;;;;5065818;28;20234;-82
2023/08/31 02:47:08;;;;;;;7.47;6.37;;;11.70;99.90;;;;;;5062833;28;20234;-82
2023/08/31 02:49:35;;;;;;;7.67;6.50;;;11.70;99.90;;;;;;5061710;28;20283;-82
2023/08/31 02:52:03;;;;;;;7.73;6.40;;;11.70;99.90;;;;;;5080107;28;20226;-82
2023/08/31 02:54:30;;;;;;;9.67;6.10;;;11.60;99.90;;;;;;5061812;28;20229;-83
2023/08/31 02:56:57;;;;;;;7.17;6.10;;;11.60;99.90;;;;;;5065482;28;20222;-83
2023/08/31 02:59:24;;;;;;;7.57;6.67;;;11.60;99.90;;;;;;5076353;28;20227;-83
2023/08/31 03:01:50;;;;;;;10.83;6.63;;;11.50;99.90;;;;;;5065986;28;20216;-82
2023/08/31 03:04:17;;;;;;;7.43;6.33;;;11.50;99.90;;;;;;5058608;28;20215;-83
2023/08/31 03:06:43;;;;;;;7.77;6.60;;;11.50;99.90;;;;;;5064662;28;20223;-83
2023/08/31 03:09:11;;;;;;;7.70;6.07;;;11.40;99.90;;;;;;5067754;28;20232;-82
2023/08/31 03:11:38;;;;;;;10.57;6.90;;;11.40;99.90;;;;;;5057009;28;20306;-81
2023/08/31 03:14:05;;;;;;;9.10;6.40;;;11.30;99.90;;;;;;5060626;28;20227;-83
2023/08/31 03:16:32;;;;;;;6.60;5.87;;;11.30;99.90;;;;;;5081386;28;20249;-82
2023/08/31 03:18:58;;;;;;;9.87;6.10;;;11.30;99.90;;;;;;5067311;28;20214;-83
2023/08/31 03:21:25;;;;;;;7.77;5.60;;;11.20;99.90;;;;;;5086113;28;20312;-83
2023/08/31 03:23:52;;;;;;;7.80;5.60;;;11.20;99.90;;;;;;5068129;28;20223;-83
2023/08/31 03:26:20;;;;;;;7.60;5.70;;;11.10;99.90;;;;;;5095493;28;20220;-83
2023/08/31 03:28:46;;;;;;;8.50;5.40;;;11.10;99.90;;;;;;5085041;28;20306;-81
2023/08/31 03:31:13;;;;;;;7.10;5.10;;;11.10;99.90;;;;;;5113315;27;20236;-81
2023/08/31 03:33:41;;;;;;;8.13;5.87;;;11.10;99.90;;;;;;5090691;28;20233;-82
2023/08/31 03:36:08;;;;;;;6.63;5.00;;;11.00;99.90;;;;;;5080099;28;20304;-83
2023/08/31 03:38:37;;;;;;;6.53;5.03;;;11.00;99.90;;;;;;5086777;28;20226;-81
2023/08/31 03:41:04;;;;;;;6.37;4.97;;;11.00;99.90;;;;;;5115871;27;20222;-83
2023/08/31 03:43:32;;;;;;;5.87;4.67;;;10.90;99.90;;;;;;5114180;27;20700;-83
2023/08/31 03:46:00;;;;;;;6.20;4.77;;;10.90;99.90;;;;;;5100858;28;20217;-82
2023/08/31 03:48:27;;;;;;;7.77;5.43;;;10.80;99.90;;;;;;5100613;28;20257;-82
2023/08/31 03:50:55;;;;;;;7.00;5.07;;;10.80;99.90;;;;;;5095118;28;20226;-83
2023/08/31 03:53:23;;;;;;;9.30;5.43;;;10.80;99.90;;;;;;5100451;28;20907;-82
2023/08/31 03:55:52;;;;;;;7.63;5.10;;;10.80;99.90;;;;;;5097801;28;20217;-83
2023/08/31 03:58:19;;;;;;;7.97;5.17;;;10.70;99.90;;;;;;5108736;27;20252;-84
2023/08/31 04:00:51;;;;;;;6.43;5.40;;;10.70;99.90;;;;;;5102602;28;20248;-84
2023/08/31 04:03:19;;;;;;;6.50;5.10;;;10.70;99.90;;;;;;5085086;28;20218;-84
2023/08/31 04:05:47;;;;;;;6.90;4.23;;;10.70;99.90;;;;;;5092435;28;20227;-84
2023/08/31 04:08:15;;;;;;;6.10;4.27;;;10.70;99.90;;;;;;5099258;28;20229;-85
2023/08/31 04:10:42;;;;;;;7.77;4.40;;;10.60;99.90;;;;;;5085548;28;20241;-84
2023/08/31 04:13:09;;;;;;;5.57;4.33;;;10.60;99.90;;;;;;5087469;28;20226;-85
2023/08/31 04:15:36;;;;;;;7.73;4.80;;;10.60;99.90;;;;;;5096300;28;20222;-84
2023/08/31 04:18:05;;;;;;;9.03;4.80;;;10.60;99.90;;;;;;5106322;28;20244;-85
2023/08/31 04:20:33;;;;;;;6.53;4.80;;;10.50;99.90;;;;;;5098310;28;20218;-83
2023/08/31 04:23:00;;;;;;;8.90;4.63;;;10.50;99.90;;;;;;5099474;28;20225;-83
2023/08/31 04:25:31;;;;;;;5.57;4.53;;;10.50;99.90;;;;;;5096880;28;20238;-83
2023/08/31 04:27:58;;;;;;;6.97;4.20;;;10.50;99.90;;;;;;5120593;27;20613;-82
2023/08/31 04:30:26;;;;;;;5.50;4.00;;;10.50;99.90;;;;;;5123769;27;20358;-83
2023/08/31 04:32:53;;;;;;;8.83;4.60;;;10.40;99.90;;;;;;5094698;28;20781;-82
2023/08/31 04:35:21;;;;;;;5.53;4.43;;;10.40;99.90;;;;;;5104311;27;20686;-83
2023/08/31 04:37:48;;;;;;;6.00;4.10;;;10.40;99.90;;;;;;5101520;28;20281;-83
2023/08/31 04:40:15;;;;;;;6.80;4.50;;;10.40;99.90;;;;;;5102890;28;20847;-82
2023/08/31 04:42:43;;;;;;;5.47;3.97;;;10.30;99.90;;;;;;5094341;28;20789;-83
2023/08/31 04:45:11;;;;;;;5.53;3.70;;;10.30;99.90;;;;;;5079094;28;20220;-82
2023/08/31 04:47:38;;;;;;;5.70;4.07;;;10.30;99.90;;;;;;5078843;28;20233;-84
2023/08/31 04:50:06;;;;;;;5.87;3.73;;;10.30;99.90;;;;;;5083920;28;20811;-83
2023/08/31 04:52:35;;;;;;;4.37;3.67;;;10.30;99.90;;;;;;5084179;28;20236;-83
2023/08/31 04:55:03;;;;;;;6.87;4.10;;;10.30;99.90;;;;;;5101452;28;20596;-83
2023/08/31 04:57:30;;;;;;;6.07;4.30;;;10.30;99.90;;;;;;5085931;28;20804;-84
2023/08/31 04:59:57;;;;;;;6.23;3.97;;;10.30;99.90;;;;;;5085263;28;20297;-83
2023/08/31 05:02:23;;;;;;;5.10;3.80;;;10.30;99.90;;;;;;5096359;28;21506;-83
2023/08/31 05:04:50;;;;;;;6.33;3.80;;;10.30;99.90;;;;;;5088747;28;20268;-81
2023/08/31 05:07:17;;;;;;;8.13;4.03;;;10.30;99.90;;;;;;5106326;27;20218;-81
2023/08/31 05:09:45;;;;;;;8.03;3.73;;;10.30;99.90;;;;;;5106150;28;20773;-81
2023/08/31 05:12:11;;;;;;;7.87;4.43;;;10.30;99.90;;;;;;5107357;28;20293;-80
2023/08/31 05:14:39;;;;;;;7.93;4.53;;;10.30;99.90;;;;;;5107507;28;20313;-81
2023/08/31 05:17:06;;;;;;;7.10;4.47;;;10.30;99.90;;;;;;5104798;28;20292;-81
2023/08/31 05:19:33;;;;;;;7.43;4.30;;;10.30;99.90;;;;;;5085421;28;20287;-81
2023/08/31 05:21:59;;;;;;;6.60;3.77;;;10.40;99.90;;;;;;5109661;27;20950;-81
2023/08/31 05:24:26;;;;;;;6.90;4.40;;;10.40;99.90;;;;;;5096471;28;20304;-81
2023/08/31 05:26:54;;;;;;;7.43;3.83;;;10.50;99.90;;;;;;5083060;28;20222;-81
2023/08/31 05:29:21;;;;;;;7.67;4.27;;;10.50;99.90;;;;;;5082744;28;20286;-81
2023/08/31 05:31:48;;;;;;;7.70;3.97;;;10.50;99.90;;;;;;5072205;28;20343;-81
2023/08/31 05:34:17;;;;;;;5.80;3.73;;;10.60;99.90;;;;;;5086609;28;20211;-81
2023/08/31 05:36:44;;;;;;;7.60;3.93;;;10.60;99.90;;;;;;5072374;28;20226;-81
2023/08/31 05:39:11;;;;;;;7.70;3.80;;;10.70;99.90;;;;;;5086724;28;20321;-81
2023/08/31 05:41:40;;;;;;;5.13;3.80;;;10.70;99.90;;;;;;5069285;28;20584;-80
2023/08/31 05:44:09;;;;;;;7.40;4.40;;;10.70;99.90;;;;;;5062057;28;20222;-81
2023/08/31 05:46:36;;;;;;;8.83;4.43;;;10.80;99.90;;;;;;5087630;28;20236;-81
2023/08/31 05:49:03;;;;;;;7.23;4.17;;;10.80;99.90;;;;;;5081593;28;20213;-80
2023/08/31 05:51:30;;;;;;;8.00;4.00;;;10.80;99.90;;;;;;5085237;28;20313;-81
2023/08/31 05:53:57;;;;;;;9.17;4.43;;;10.90;99.90;;;;;;5078662;28;20813;-81
2023/08/31 05:56:24;;;;;;;6.20;3.80;;;10.90;99.90;;;;;;5062396;28;20312;-81
2023/08/31 05:58:54;;;;;;;7.97;4.10;;;10.90;99.90;;;;;;5086481;28;20867;-80
2023/08/31 06:01:22;;;;;;;6.87;3.87;;;10.90;99.90;;;;;;5075680;28;20317;-80
2023/08/31 06:03:49;;;;;;;7.47;4.50;;;11.00;99.90;;;;;;5077226;28;20226;-83
2023/08/31 06:06:16;;;;;;;6.13;4.37;;;11.00;99.90;;;;;;5081884;28;20940;-82
2023/08/31 06:08:43;;;;;;;5.07;4.00;;;11.10;99.90;;;;;;5072632;28;20220;-83
2023/08/31 06:11:10;;;;;;;7.50;4.23;;;11.10;99.90;;;;;;5083591;28;20771;-83
2023/08/31 06:13:37;;;;;;;6.60;4.03;;;11.10;99.90;;;;;;5078575;28;20302;-82
2023/08/31 06:16:03;;;;;;;5.87;3.63;;;11.20;99.90;;;;;;5084869;28;20227;-82
2023/08/31 06:18:31;;;;;;;6.83;3.60;;;11.20;99.90;;;;;;5068174;28;20721;-82
2023/08/31 06:20:58;;;;;;;7.77;3.77;;;11.30;99.90;;;;;;5067604;28;20252;-83
2023/08/31 06:23:25;;;;;;;11.43;3.90;;;11.30;99.90;;;;;;5087300;28;20317;-83
2023/08/31 06:25:52;;;;;;;8.47;3.70;;;11.40;99.90;;;;;;5097793;28;20230;-83
2023/08/31 06:28:18;;;;;;;7.60;3.13;;;11.50;99.90;;;;;;5081543;28;20780;-83
2023/08/31 06:30:46;;;;;;;6.30;3.33;;;11.50;99.90;;;;;;5100143;28;20844;-83
2023/08/31 06:33:13;;;;;;;5.10;3.40;;;11.60;99.90;;;;;;5082314;28;20220;-82
2023/08/31 06:35:41;;;;;;;6.73;3.20;;;11.60;99.90;;;;;;5104017;28;20223;-82
2023/08/31 06:38:07;;;;;;;7.70;3.30;;;11.70;99.90;;;;;;5081046;28;20223;-82
2023/08/31 06:40:34;;;;;;;5.60;2.83;;;11.70;99.90;;;;;;5087686;28;20222;-83
2023/08/31 06:43:01;;;;;;;6.87;3.50;;;11.80;99.90;;;;;;5085823;28;20226;-80
2023/08/31 06:45:28;;;;;;;7.67;3.47;;;11.80;99.90;;;;;;5085152;28;20220;-81
2023/08/31 06:47:55;;;;;;;6.50;3.33;;;11.80;99.90;;;;;;5084009;28;20227;-82
2023/08/31 06:50:21;;;;;;;7.93;3.03;;;11.90;99.90;;;;;;5080920;28;20312;-82
2023/08/31 06:52:49;;;;;;;7.83;3.03;;;12.00;99.90;;;;;;5100192;28;20314;-82
2023/08/31 06:55:16;;;;;;;4.20;2.80;;;12.00;99.90;;;;;;5085964;28;20303;-82
2023/08/31 06:57:43;;;;;;;6.80;2.70;;;12.10;99.90;;;;;;5085121;28;20232;-82
2023/08/31 07:00:12;;;;;;;7.13;3.03;;;12.10;99.90;;;;;;5085296;28;20732;-82
2023/08/31 07:02:40;;;;;;;5.83;3.10;;;12.10;99.90;;;;;;5084709;28;20225;-83
2023/08/31 07:05:07;;;;;;;6.10;2.97;;;12.20;99.90;;;;;;5100080;28;20305;-81
2023/08/31 07:07:34;;;;;;;5.70;3.37;;;12.20;99.90;;;;;;5098436;28;20227;-82
2023/08/31 07:10:02;;;;;;;5.37;2.90;;;12.30;99.90;;;;;;5079504;28;20617;-82
2023/08/31 07:12:29;;;;;;;8.93;3.00;;;12.20;99.90;;;;;;5102370;28;20764;-81
2023/08/31 07:14:56;;;;;;;5.03;2.53;;;12.30;99.90;;;;;;5111148;28;20228;-82
2023/08/31 07:17:23;;;;;;;4.07;2.13;;;12.30;99.90;;;;;;5100339;28;20225;-84
2023/08/31 07:19:49;;;;;;;10.33;3.03;;;12.40;99.90;;;;;;5100869;28;20222;-82
2023/08/31 07:22:16;;;;;;;6.10;2.60;;;12.40;99.90;;;;;;5089089;28;20768;-82
2023/08/31 07:24:44;;;;;;;4.63;2.30;;;12.40;99.90;;;;;;5099296;28;20278;-82
2023/08/31 07:27:12;;;;;;;6.60;2.57;;;12.50;99.90;;;;;;5088806;27;20257;-81
2023/08/31 07:29:40;;;;;;;5.63;2.80;;;12.60;99.90;;;;;;5103398;27;20232;-82
2023/08/31 07:32:07;;;;;;;3.80;2.60;;;12.60;99.90;;;;;;5089951;28;20264;-82
2023/08/31 07:34:35;;;;;;;3.13;2.40;;;12.60;99.90;;;;;;5095181;28;20233;-80
2023/08/31 07:37:01;;;;;;;5.87;2.20;;;12.70;99.90;;;;;;5097213;28;20255;-80
2023/08/31 07:39:28;;;;;;;3.33;2.30;;;12.70;99.90;;;;;;5109137;27;20232;-81
2023/08/31 07:41:55;;;;;;;4.63;2.30;;;12.70;99.90;;;;;;5109023;28;20328;-81
2023/08/31 07:44:24;;;;;;;5.00;2.07;;;12.80;99.90;;;;;;5088528;28;21008;-81
2023/08/31 07:46:51;;;;;;;4.97;2.20;;;12.90;99.90;;;;;;5107531;28;20606;-81
2023/08/31 07:49:18;;;;;;;3.97;1.97;;;13.10;99.90;;;;;;5106509;28;20598;-82
2023/08/31 07:51:44;;;;;;;3.70;1.60;;;13.50;99.90;;;;;;5090284;28;20294;-81
2023/08/31 07:54:12;;;;;;;3.27;1.47;;;14.00;99.90;;;;;;5109131;28;20972;-81
2023/08/31 07:56:41;;;;;;;2.20;1.30;;;14.60;99.90;;;;;;5086262;28;20766;-83
2023/08/31 07:59:08;;;;;;;5.03;1.53;;;15.30;99.90;;;;;;5093251;28;20229;-83
2023/08/31 08:01:36;;;;;;;3.20;1.60;;;16.00;99.90;;;;;;5099579;28;20230;-83
2023/08/31 08:04:03;;;;;;;3.30;1.45;;;16.70;99.90;;;;;;5090076;28;20268;-83
2023/08/31 08:06:29;;;;;;;3.28;1.50;;;17.40;99.90;;;;;;5089490;28;20226;-83
2023/08/31 08:08:56;;;;;;;4.00;1.50;;;18.10;99.90;;;;;;5103060;27;20222;-82
2023/08/31 08:11:23;;;;;;;3.60;1.27;;;18.70;99.90;;;;;;5102487;27;21032;-83
2023/08/31 08:13:50;;;;;;;4.93;1.75;;;19.20;99.90;;;;;;5091588;28;20772;-81
2023/08/31 08:16:17;;;;;;;3.88;1.63;;;19.60;99.90;;;;;;5087543;28;20253;-82
2023/08/31 08:18:45;;;;;;;3.75;1.60;;;19.90;99.90;;;;;;5104527;28;20232;-80
2023/08/31 08:21:11;;;;;;;3.20;1.40;;;20.10;99.90;;;;;;5083367;28;20226;-82
2023/08/31 08:23:38;;;;;;;3.17;1.70;;;20.30;99.90;;;;;;5093980;28;20224;-82
2023/08/31 08:26:05;;;;;;;3.90;1.65;;;20.40;99.90;;;;;;5086260;28;20230;-81
2023/08/31 08:28:32;;;;;;;2.55;1.30;;;20.50;99.90;;;;;;5103058;28;20226;-82
2023/08/31 08:31:03;;;;;;;3.80;1.50;;;20.80;99.90;;;;;;5101741;28;20788;-81
2023/08/31 08:33:29;;;;;;;3.67;1.45;;;21.00;99.90;;;;;;5088472;28;20218;-83
2023/08/31 08:35:58;;;;;;;4.45;1.23;;;21.30;99.90;;;;;;5084060;28;20329;-82
2023/08/31 08:38:25;;;;;;;2.67;1.30;;;21.40;99.90;;;;;;5102364;27;20728;-83
2023/08/31 08:40:52;;;;;;;3.10;1.27;;;21.50;99.90;;;;;;5081163;28;20222;-81
2023/08/31 08:43:25;;;;;;;1.83;1.10;;;21.60;99.90;;;;;;5100670;28;20741;-83
2023/08/31 08:45:52;;;;;;;3.42;1.30;;;21.50;99.50;;;;;;5101437;28;20228;-82
2023/08/31 08:48:20;;;;;;;4.38;1.40;;;21.40;99.10;;;;;;5108171;27;20228;-82
2023/08/31 08:50:47;;;;;;;1.65;1.23;;;21.30;99.70;;;;;;5088951;28;20229;-82
2023/08/31 08:53:15;;;;;;;1.23;1.10;;;21.20;99.70;;;;;;5088787;28;20611;-82
2023/08/31 08:55:42;;;;;;;1.88;1.10;;;21.20;99.90;;;;;;5091162;28;20232;-81
2023/08/31 08:58:09;;;;;;;2.30;1.20;;;21.10;99.90;;;;;;5096033;28;20230;-83
2023/08/31 09:00:36;;;;;;;2.53;1.20;;;21.10;99.60;;;;;;5082481;28;20245;-81
2023/08/31 09:03:03;;;;;;;4.68;1.60;;;21.10;99.70;;;;;;5084939;28;20233;-83
2023/08/31 09:05:32;;;;;;;3.65;1.50;;;21.00;99.40;;;;;;5088770;28;20696;-82
2023/08/31 09:08:03;;;;;;;3.53;1.40;;;20.90;98.80;;;;;;5086486;28;20225;-82
2023/08/31 09:10:40;;;;;;;2.70;1.30;;;20.70;98.60;;;;;;5090636;28;20310;-82
2023/08/31 09:13:09;;;;;;;2.53;1.08;;;20.50;98.70;;;;;;5100748;28;20241;-81
2023/08/31 09:15:43;;;;;;;3.10;1.60;;;20.20;99.30;;;;;;5106221;27;20221;-82
2023/08/31 09:18:17;;;;;;;3.95;1.33;;;20.00;99.40;;;;;;5103914;28;20213;-83
2023/08/31 09:20:45;;;;;;;4.05;1.50;;;19.80;99.80;;;;;;5105737;28;21003;-82
2023/08/31 09:23:12;;;;;;;2.50;1.30;;;19.60;99.90;;;;;;5085193;28;20219;-83
2023/08/31 09:25:44;;;;;;;3.17;1.50;;;19.40;99.90;;;;;;5087435;28;20221;-83
2023/08/31 09:28:11;;;;;;;1.55;1.17;;;19.20;99.60;;;;;;5102265;28;20637;-81
2023/08/31 09:30:40;;;;;;;1.73;1.30;;;19.00;99.90;;;;;;5087119;28;20237;-82
2023/08/31 09:33:08;;;;;;;3.23;1.30;;;18.80;99.90;;;;;;5091760;28;20221;-81
2023/08/31 09:35:39;;;;;;;2.73;1.50;;;18.60;99.90;;;;;;5091967;28;20703;-82
2023/08/31 09:38:08;;;;;;;4.07;1.77;;;18.40;99.90;;;;;;5091182;28;20218;-82
2023/08/31 09:40:35;;;;;;;4.05;1.70;;;18.30;99.90;;;;;;5088575;28;20224;-82
2023/08/31 09:43:03;;;;;;;3.40;1.60;;;18.20;99.90;;;;;;5101847;28;20234;-82
2023/08/31 09:45:31;;;;;;;2.53;1.80;;;18.20;99.90;;;;;;5104769;27;20311;-82
2023/08/31 09:47:59;;;;;;;4.22;1.98;;;18.20;99.90;;;;;;5090938;28;20214;-82
2023/08/31 09:50:27;;;;;;;3.40;1.53;;;18.20;99.90;;;;;;5086795;28;20234;-82
2023/08/31 09:52:56;;;;;;;3.77;1.77;;;18.20;99.90;;;;;;5089466;28;20220;-82
2023/08/31 09:55:25;;;;;;;4.60;1.77;;;18.10;99.90;;;;;;5104228;28;20775;-82
2023/08/31 09:57:53;;;;;;;4.03;1.83;;;18.00;99.90;;;;;;5103722;28;20214;-82
2023/08/31 10:00:22;;;;;;;6.37;1.77;;;18.00;99.90;;;;;;5085285;28;20611;-82
2023/08/31 10:02:50;;;;;;;3.55;1.67;;;18.00;99.90;;;;;;5087993;28;20734;-82
2023/08/31 10:05:17;;;;;;;4.00;1.58;;;18.20;99.90;;;;;;5103629;27;20921;-81
2023/08/31 10:07:46;;;;;;;3.85;1.75;;;18.60;99.90;;;;;;5087613;28;20229;-82
2023/08/31 10:10:15;;;;;;;4.25;1.90;;;19.00;99.90;;;;;;5082576;28;20232;-82
2023/08/31 10:12:42;;;;;;;2.95;1.90;;;19.50;99.90;;;;;;5085833;28;20222;-83
2023/08/31 10:15:11;;;;;;;4.50;1.83;;;19.90;99.90;;;;;;5088883;28;20736;-82
2023/08/31 10:17:41;;;;;;;3.03;1.90;;;20.20;99.90;;;;;;5103701;27;20594;-82
2023/08/31 10:20:09;;;;;;;3.92;1.77;;;20.40;98.90;;;;;;5084679;28;20249;-82
2023/08/31 10:22:37;;;;;;;3.45;2.13;;;20.60;99.90;;;;;;5085008;28;20879;-82
2023/08/31 10:25:06;;;;;;;4.32;1.90;;;20.70;99.60;;;;;;5083144;28;20221;-83
2023/08/31 10:27:38;;;;;;;2.63;1.77;;;20.80;98.50;;;;;;5102351;28;20218;-82
2023/08/31 10:30:16;;;;;;;4.53;2.30;;;20.80;98.10;;;;;;5088514;28;20772;-82
2023/08/31 10:32:44;;;;;;;2.85;2.00;;;20.70;98.10;;;;;;5104876;27;20778;-82
2023/08/31 10:35:11;;;;;;;2.25;1.63;;;20.70;99.00;;;;;;5090033;28;20256;-81
2023/08/31 10:37:40;;;;;;;2.45;1.50;;;20.70;99.00;;;;;;5110253;27;20210;-82
2023/08/31 10:40:08;;;;;;;2.40;1.70;;;20.80;97.90;;;;;;5091707;27;20248;-83
2023/08/31 10:42:43;;;;;;;2.33;1.50;;;20.80;97.60;;;;;;5096056;28;20218;-82
2023/08/31 10:45:10;;;;;;;2.63;1.42;;;20.80;97.10;;;;;;5093052;28;20213;-80
2023/08/31 10:47:41;;;;;;;3.78;1.80;;;20.80;97.70;;;;;;5088566;28;20218;-81
2023/08/31 10:50:20;;;;;;;2.47;1.80;;;20.90;97.40;;;;;;5102346;28;20230;-82
2023/08/31 10:52:47;;;;;;;4.97;2.00;;;21.00;97.30;;;;;;5087572;28;20595;-80
2023/08/31 10:55:14;;;;;;;3.60;2.20;;;21.20;98.10;;;;;;5099144;28;20557;-81
2023/08/31 10:57:41;;;;;;;3.95;2.00;;;21.50;97.60;;;;;;5100424;28;20232;-82
2023/08/31 11:00:10;;;;;;;2.95;2.10;;;21.90;97.30;;;;;;5088272;28;20225;-82
2023/08/31 11:02:38;;;;;;;2.88;2.30;;;22.20;96.80;;;;;;5090020;28;20229;-82
2023/08/31 11:05:09;;;;;;;3.28;2.20;;;22.60;96.20;;;;;;5086380;28;20258;-81
2023/08/31 11:07:40;;;;;;;3.65;1.60;;;22.90;95.90;;;;;;5095397;28;20217;-82
2023/08/31 11:10:12;;;;;;;2.20;1.73;;;23.20;96.10;;;;;;5089936;28;20234;-82
2023/08/31 11:12:39;;;;;;;2.50;1.70;;;23.50;94.50;;;;;;5107853;28;20231;-82
2023/08/31 11:15:07;;;;;;;2.47;1.70;;;23.80;94.10;;;;;;5094678;28;20272;-82
2023/08/31 11:17:34;;;;;;;3.42;1.95;;;24.00;94.10;;;;;;5115396;28;20231;-83
2023/08/31 11:20:05;;;;;;;3.60;2.20;;;24.20;93.70;;;;;;5101222;28;20222;-82
2023/08/31 11:22:32;;;;;;;3.33;1.88;;;24.30;93.20;;;;;;5101707;28;20308;-83
2023/08/31 11:25:01;;;;;;;3.20;1.75;;;24.40;93.30;;;;;;5117536;28;20257;-83
2023/08/31 11:27:27;;;;;;;1.88;1.40;;;24.60;92.20;;;;;;5120313;28;20214;-82
2023/08/31 11:29:54;;;;;;;2.10;1.50;;;24.70;92.30;;;;;;5101846;28;20247;-83
2023/08/31 11:32:24;;;;;;;2.72;1.73;;;24.70;92.00;;;;;;5101754;28;20253;-82
2023/08/31 11:34:51;;;;;;;3.08;1.70;;;24.70;90.80;;;;;;5101209;28;20222;-83
2023/08/31 11:37:19;;;;;;;3.28;1.80;;;24.60;90.70;;;;;;5088777;28;20226;-82
2023/08/31 11:39:51;;;;;;;3.03;1.83;;;24.50;91.30;;;;;;5086516;28;21095;-82
2023/08/31 11:42:20;;;;;;;2.08;1.35;;;24.30;91.10;;;;;;5116552;28;20221;-82
2023/08/31 11:44:48;;;;;;;2.78;1.42;;;24.20;91.10;;;;;;5105868;28;20249;-82
2023/08/31 11:47:16;;;;;;;1.83;1.27;;;24.10;91.30;;;;;;5100320;28;20519;-82
2023/08/31 11:49:44;;;;;;;1.23;1.00;;;24.00;90.60;;;;;;5096882;28;20726;-82
2023/08/31 11:52:11;;;;;;;2.35;1.52;;;23.80;90.80;;;;;;5107530;28;20230;-83
2023/08/31 11:54:39;;;;;;;2.17;1.30;;;23.70;90.00;;;;;;5101218;28;20225;-83
2023/08/31 11:57:08;;;;;;;1.35;1.05;;;23.50;90.50;;;;;;5114022;28;20222;-82
2023/08/31 11:59:37;;;;;;;2.50;1.15;;;23.40;90.20;;;;;;5101004;28;20282;-82
2023/08/31 12:02:07;;;;;;;4.05;1.50;;;23.20;90.40;;;;;;5108640;28;20228;-83
2023/08/31 12:04:34;;;;;;;2.25;1.05;;;23.00;90.50;;;;;;5100978;28;20218;-83
2023/08/31 12:07:04;;;;;;;2.63;1.20;;;22.80;90.80;;;;;;5094263;28;20265;-83
2023/08/31 12:09:31;;;;;;;2.70;1.13;;;22.50;90.50;;;;;;5098664;28;20294;-83
2023/08/31 12:12:00;;;;;;;2.45;1.10;;;22.30;90.80;;;;;;5091824;28;20242;-83
2023/08/31 12:14:27;;;;;;;2.25;1.10;;;22.00;91.40;;;;;;5101174;28;20260;-83
2023/08/31 12:17:03;;;;;;;2.15;1.10;;;21.80;91.40;;;;;;5098455;28;20321;-83
2023/08/31 12:19:31;;;;;;;3.78;1.10;;;21.50;91.80;;;;;;5105273;27;20218;-83
2023/08/31 12:21:58;;;;;;;1.77;0.98;;;21.30;92.00;;;;;;5100755;28;20271;-83
2023/08/31 12:24:25;;;;;;;1.75;0.80;;;21.10;92.30;;;;;;5112645;28;20226;-82
2023/08/31 12:26:53;;;;;;;2.38;0.90;;;20.90;92.00;;;;;;5092696;28;20217;-83
2023/08/31 12:29:20;;;;;;;3.38;0.85;;;20.80;92.40;;;;;;5091442;28;20231;-82
2023/08/31 12:31:47;;;;;;;1.35;0.68;;;20.70;92.80;;;;;;5092884;28;21019;-82
2023/08/31 12:34:15;;;;;;;1.55;0.80;;;20.70;92.40;;;;;;5091134;28;20271;-83
2023/08/31 12:36:42;;;;;;;1.30;0.70;;;20.70;92.50;;;;;;5115628;28;21052;-82
2023/08/31 12:39:10;;;;;;;2.17;1.00;;;20.60;92.50;;;;;;5093693;28;20210;-80
2023/08/31 12:41:37;;;;;;;1.60;0.60;;;20.60;92.90;;;;;;5091982;28;20234;-81
2023/08/31 12:44:04;;;;;;;1.38;0.75;;;20.50;92.60;;;;;;5094046;28;20241;-82
2023/08/31 12:46:31;;;;;;;5.13;1.20;;;20.50;93.20;;;;;;5096254;28;20814;-82
2023/08/31 12:48:58;;;;;;;1.15;0.70;;;20.60;93.20;;;;;;5092294;28;20225;-82